This is the latest recevied weather packets stored in our database for station/object W1SGB. If no packets are shown the sender has not sent any weather packets the latest 10 day(s).
| Time | Temp. | Humidity | Pressure | Rain* | Wind** | Luminosity | Snow |
|---|---|---|---|---|---|---|---|
| 1777620644 | 7.22° C | 87% | 1008.2 hPa | 0 mm | - | 0 W/m² | - |
| 1777619425 | 7.22° C | 89% | 1008.2 hPa | 0 mm | - | 0 W/m² | - |
| 1777618825 | 7.78° C | 89% | 1008 hPa | 0 mm | - | 0 W/m² | - |
| 1777613446 | 6.67° C | 94% | 1008 hPa | 0 mm | - | 0 W/m² | - |
| 1777606828 | 8.33° C | 91% | 1007.1 hPa | 0 mm | - | 0 W/m² | - |
| 1777604429 | 8.89° C | 95% | 1007.2 hPa | 0 mm | - | 0 W/m² | - |
| 1777596618 | 10.56° C | 92% | 1007 hPa | 0 mm | - | 0 W/m² | - |
| 1777595418 | 11.11° C | 90% | 1006.8 hPa | 0 mm | - | 0 W/m² | - |
| 1777590620 | 12.22° C | 85% | 1006.3 hPa | 0 mm | - | 5 W/m² | - |
| 1777583462 | 12.22° C | 83% | 1005.7 hPa | 0 mm | - | 59 W/m² | - |
| 1777582821 | 12.22° C | 84% | 1005.7 hPa | 0 mm | - | 69 W/m² | - |
| 1777579823 | 11.67° C | 85% | 1005.6 hPa | 0 mm | - | 94 W/m² | - |
| 1777579243 | 11.67° C | 86% | 1005.8 hPa | 0 mm | - | 94 W/m² | - |
| 1777577423 | 11.67° C | 87% | 1005.9 hPa | 0 mm | - | 68 W/m² | - |
| 1777568426 | 10° C | 95% | 1006.9 hPa | 0 mm | - | 139 W/m² | - |
| 1777565426 | 9.44° C | 96% | 1007.1 hPa | 0 mm | - | 124 W/m² | - |
| 1777562448 | 8.89° C | 96% | 1007.2 hPa | 0 mm | - | 83 W/m² | - |
| 1777561228 | 8.89° C | 96% | 1007 hPa | 0 mm | - | 115 W/m² | - |
| 1777553450 | 7.78° C | 96% | 1008 hPa | 1.52 mm | - | 51 W/m² | - |
| 1777551630 | 7.78° C | 96% | 1008.1 hPa | 0.25 mm | - | 32 W/m² | - |
| 1777550416 | 7.78° C | 97% | 1008.1 hPa | 0.25 mm | - | 30 W/m² | - |
| 1777548631 | 7.78° C | 97% | 1007.9 hPa | 0.25 mm | - | 26 W/m² | - |
| 1777542019 | 7.22° C | 96% | 1007.8 hPa | 0.51 mm | - | 0 W/m² | - |
| 1777540839 | 7.22° C | 96% | 1008.1 hPa | 0.51 mm | - | 0 W/m² | - |
| 1777536640 | 7.22° C | 96% | 1008.1 hPa | 1.52 mm | - | 0 W/m² | - |
* Rain latest hour (hover to see other rain measurements)
** Current wind speed in m/s (hover to see current wind gust speed)